Time;durP1;ratioP1;P1;durP2;ratioP2;P2;SDS_P1;SDS_P2;PMS_P1;PMS_P2;Temp;Humidity;BMP_temperature;BMP_pressure;BME280_temperature;BME280_humidity;BME280_pressure;Samples;Min_cycle;Max_cycle;Signal;HPM_P1;HPM_P2
2022/04/09 00:00:25;;;;;;;12.80;7.87;;;5.80;85.50;;;;;;4966099;28;20784;-43
2022/04/09 00:02:52;;;;;;;10.43;8.07;;;5.80;85.60;;;;;;4979555;28;20539;-43
2022/04/09 00:05:19;;;;;;;8.63;6.87;;;5.80;85.30;;;;;;4981108;28;20490;-43
2022/04/09 00:07:45;;;;;;;10.97;8.27;;;5.80;85.70;;;;;;4982312;28;20458;-43
2022/04/09 00:10:12;;;;;;;10.10;6.87;;;5.80;85.80;;;;;;4976874;28;20454;-42
2022/04/09 00:12:44;;;;;;;9.73;7.50;;;5.80;86.00;;;;;;4978719;28;20832;-42
2022/04/09 00:15:12;;;;;;;12.87;8.57;;;5.80;86.00;;;;;;4984301;28;20477;-43
2022/04/09 00:17:41;;;;;;;15.03;8.60;;;5.80;86.20;;;;;;4982285;28;20453;-43
2022/04/09 00:20:13;;;;;;;15.90;9.47;;;5.80;85.60;;;;;;4982142;28;20465;-43
2022/04/09 00:22:40;;;;;;;11.60;8.27;;;5.80;85.60;;;;;;4982491;28;20455;-43
2022/04/09 00:25:11;;;;;;;14.23;10.03;;;5.80;85.60;;;;;;4979688;28;20967;-43
2022/04/09 00:27:39;;;;;;;11.90;8.13;;;5.80;85.20;;;;;;4982475;28;20457;-43
2022/04/09 00:30:08;;;;;;;13.53;8.83;;;5.70;85.40;;;;;;4972681;28;20462;-43
2022/04/09 00:32:35;;;;;;;14.83;10.33;;;5.70;85.90;;;;;;4979582;28;20986;-43
2022/04/09 00:35:03;;;;;;;12.13;9.60;;;5.70;86.30;;;;;;4982332;28;20463;-43
2022/04/09 00:37:29;;;;;;;15.47;11.70;;;5.70;86.50;;;;;;4980235;28;20502;-43
2022/04/09 00:39:56;;;;;;;12.40;9.23;;;5.70;86.30;;;;;;4993588;28;20453;-46
2022/04/09 00:42:23;;;;;;;12.80;9.60;;;5.70;86.30;;;;;;4992600;28;20461;-47
2022/04/09 00:44:50;;;;;;;12.40;9.90;;;5.80;85.70;;;;;;5000907;28;20508;-46
2022/04/09 00:47:17;;;;;;;12.77;8.63;;;5.70;85.80;;;;;;4997286;28;21030;-47
2022/04/09 00:49:44;;;;;;;15.03;9.33;;;5.70;85.60;;;;;;5003020;28;20982;-46
2022/04/09 00:52:14;;;;;;;10.37;8.87;;;5.70;85.50;;;;;;4998551;28;20492;-46
2022/04/09 00:54:44;;;;;;;12.63;9.20;;;5.70;85.60;;;;;;4995082;28;20514;-46
2022/04/09 00:57:11;;;;;;;15.70;11.13;;;5.70;85.70;;;;;;4999649;28;20526;-47
2022/04/09 00:59:44;;;;;;;15.80;10.80;;;5.70;85.70;;;;;;4996055;28;20513;-46
2022/04/09 01:02:11;;;;;;;14.07;10.10;;;5.70;85.60;;;;;;4982867;28;20543;-46
2022/04/09 01:04:45;;;;;;;14.90;10.50;;;5.70;85.60;;;;;;4998542;28;20466;-46
2022/04/09 01:07:13;;;;;;;15.23;11.70;;;5.70;85.70;;;;;;4999298;28;20540;-47
2022/04/09 01:09:41;;;;;;;14.23;11.20;;;5.70;85.70;;;;;;4994776;28;20818;-47
2022/04/09 01:12:09;;;;;;;15.30;10.70;;;5.70;85.70;;;;;;5001116;28;20860;-46
2022/04/09 01:14:36;;;;;;;13.20;10.10;;;5.70;85.90;;;;;;5001494;28;20460;-46
2022/04/09 01:17:03;;;;;;;14.40;10.93;;;5.70;86.20;;;;;;4996837;28;20518;-47
2022/04/09 01:19:30;;;;;;;17.50;11.80;;;5.60;85.50;;;;;;4999190;28;20528;-47
2022/04/09 01:21:59;;;;;;;17.13;11.33;;;5.60;85.70;;;;;;4996299;28;20844;-46
2022/04/09 01:24:26;;;;;;;14.90;11.03;;;5.60;86.00;;;;;;4998246;28;20534;-46
2022/04/09 01:26:53;;;;;;;18.07;11.80;;;5.60;86.00;;;;;;5001281;28;20521;-46
2022/04/09 01:29:20;;;;;;;19.00;13.00;;;5.60;85.70;;;;;;4995250;28;20546;-47
2022/04/09 01:31:46;;;;;;;16.70;12.40;;;5.60;85.70;;;;;;4998737;28;20481;-46
2022/04/09 01:34:14;;;;;;;15.40;12.00;;;5.60;85.50;;;;;;4994465;28;20508;-47
2022/04/09 01:36:41;;;;;;;17.73;11.97;;;5.60;85.50;;;;;;4998175;28;20961;-46
2022/04/09 01:39:08;;;;;;;16.97;11.77;;;5.60;85.50;;;;;;5001324;28;20462;-46
2022/04/09 01:41:34;;;;;;;14.90;11.43;;;5.60;85.30;;;;;;4984554;28;20466;-47
2022/04/09 01:44:03;;;;;;;14.10;11.60;;;5.60;85.50;;;;;;4996122;28;20550;-47
2022/04/09 01:46:30;;;;;;;13.57;11.63;;;5.60;85.70;;;;;;4993225;28;20487;-47
2022/04/09 01:48:57;;;;;;;14.17;10.97;;;5.60;85.70;;;;;;4995780;28;20516;-47
2022/04/09 01:51:23;;;;;;;15.43;11.30;;;5.60;85.20;;;;;;4998060;28;20522;-47
2022/04/09 01:53:50;;;;;;;11.50;9.83;;;5.60;85.50;;;;;;4997005;28;20533;-46
2022/04/09 01:56:17;;;;;;;11.50;9.53;;;5.60;84.80;;;;;;4995875;28;20530;-46
2022/04/09 01:58:44;;;;;;;13.80;9.93;;;5.60;84.60;;;;;;5001286;28;20475;-47
2022/04/09 02:01:11;;;;;;;16.23;10.60;;;5.60;84.60;;;;;;4996516;28;20512;-46
2022/04/09 02:03:37;;;;;;;12.23;9.83;;;5.60;84.90;;;;;;4996540;28;20831;-47
2022/04/09 02:06:04;;;;;;;15.80;9.80;;;5.70;84.90;;;;;;4993550;28;20489;-46
2022/04/09 02:08:32;;;;;;;8.97;7.90;;;5.70;85.10;;;;;;4991270;28;20513;-47
2022/04/09 02:10:59;;;;;;;10.23;8.73;;;5.70;84.50;;;;;;4993548;28;20986;-47
2022/04/09 02:13:25;;;;;;;10.40;8.80;;;5.70;84.60;;;;;;4998011;28;20456;-47
2022/04/09 02:15:52;;;;;;;8.80;6.93;;;5.80;84.40;;;;;;4996746;28;20438;-47
2022/04/09 02:18:19;;;;;;;9.90;7.73;;;5.70;84.40;;;;;;4999464;28;20531;-46
2022/04/09 02:20:46;;;;;;;8.70;6.60;;;5.80;84.40;;;;;;4998881;28;20473;-47
2022/04/09 02:23:12;;;;;;;9.40;8.40;;;5.80;84.40;;;;;;4998968;28;20473;-47
2022/04/09 02:25:39;;;;;;;9.33;6.97;;;5.70;83.90;;;;;;4999380;28;20469;-48
2022/04/09 02:28:06;;;;;;;8.17;6.70;;;5.80;84.40;;;;;;4999005;28;20457;-47
2022/04/09 02:30:33;;;;;;;12.27;8.10;;;5.70;84.40;;;;;;4997982;28;20853;-46
2022/04/09 02:32:59;;;;;;;8.07;7.20;;;5.80;85.00;;;;;;4995730;28;20561;-47
2022/04/09 02:35:28;;;;;;;12.67;7.67;;;5.80;84.00;;;;;;4999304;28;20544;-47
2022/04/09 02:37:55;;;;;;;10.30;7.07;;;5.80;83.50;;;;;;4994562;28;20493;-47
2022/04/09 02:40:24;;;;;;;9.40;6.67;;;5.80;83.00;;;;;;4996173;28;20524;-47
2022/04/09 02:42:51;;;;;;;7.80;6.50;;;5.90;83.70;;;;;;4994822;28;20487;-47
2022/04/09 02:45:17;;;;;;;8.23;7.23;;;5.80;83.50;;;;;;4993136;28;20493;-48
2022/04/09 02:47:44;;;;;;;8.63;7.47;;;5.80;83.30;;;;;;4997219;28;20585;-47
2022/04/09 02:50:12;;;;;;;10.40;7.53;;;5.80;82.50;;;;;;4997452;28;20466;-46
2022/04/09 02:52:40;;;;;;;8.27;7.33;;;5.80;82.70;;;;;;4998137;28;20549;-46
2022/04/09 02:55:08;;;;;;;13.33;7.23;;;5.80;82.20;;;;;;4978975;28;20464;-47
2022/04/09 02:57:37;;;;;;;9.20;7.10;;;5.80;82.80;;;;;;5000462;28;20486;-46
2022/04/09 03:00:07;;;;;;;8.33;6.30;;;5.70;82.70;;;;;;4984508;28;20546;-42
2022/04/09 03:02:36;;;;;;;7.20;6.60;;;5.80;82.40;;;;;;4984520;28;20847;-42
2022/04/09 03:05:04;;;;;;;9.93;6.90;;;5.80;82.40;;;;;;4985996;28;20461;-42
2022/04/09 03:07:31;;;;;;;8.03;6.60;;;5.80;82.60;;;;;;4963297;28;20994;-42
2022/04/09 03:09:58;;;;;;;7.93;6.00;;;5.80;82.40;;;;;;4983666;28;20977;-42
2022/04/09 03:12:25;;;;;;;11.60;6.73;;;5.80;82.80;;;;;;4984963;28;20541;-42
2022/04/09 03:14:51;;;;;;;11.70;6.20;;;5.80;82.70;;;;;;4984092;28;20466;-42
2022/04/09 03:17:18;;;;;;;10.60;6.50;;;5.80;83.50;;;;;;4965691;28;20457;-42
2022/04/09 03:19:45;;;;;;;10.47;5.50;;;5.80;83.50;;;;;;4979928;28;20950;-42
2022/04/09 03:22:11;;;;;;;13.53;6.00;;;5.80;83.70;;;;;;4982455;28;20469;-42
2022/04/09 03:24:38;;;;;;;9.57;5.73;;;5.80;83.60;;;;;;4976631;28;20462;-42
2022/04/09 03:27:05;;;;;;;12.80;5.17;;;5.80;82.60;;;;;;4983127;28;20539;-42
2022/04/09 03:29:32;;;;;;;11.57;5.07;;;5.90;83.00;;;;;;4984787;28;20504;-42
2022/04/09 03:32:00;;;;;;;5.90;5.40;;;5.90;83.00;;;;;;4985325;28;20478;-42
2022/04/09 03:34:27;;;;;;;10.10;5.10;;;5.90;83.40;;;;;;4982089;28;20775;-42
2022/04/09 03:36:54;;;;;;;7.30;4.70;;;5.90;83.40;;;;;;4981444;28;20474;-42
2022/04/09 03:39:21;;;;;;;5.43;3.70;;;5.90;83.20;;;;;;4983835;28;20469;-42
2022/04/09 03:41:47;;;;;;;9.00;4.50;;;5.90;82.70;;;;;;4987359;28;20474;-42
2022/04/09 03:44:34;;;;;;;6.80;4.33;;;6.00;82.10;;;;;;4981175;28;20466;-42
2022/04/09 03:47:03;;;;;;;5.87;3.33;;;5.90;82.30;;;;;;4983017;28;20496;-42
2022/04/09 03:49:30;;;;;;;5.23;4.17;;;5.90;82.50;;;;;;4979535;28;21090;-42
2022/04/09 03:51:57;;;;;;;7.90;3.27;;;6.00;82.20;;;;;;4981547;28;20545;-42
2022/04/09 03:54:24;;;;;;;6.27;3.33;;;6.00;82.20;;;;;;4985227;28;20560;-42
2022/04/09 03:56:51;;;;;;;6.60;5.93;;;5.90;82.20;;;;;;4983985;28;20458;-42
2022/04/09 03:59:18;;;;;;;5.40;3.10;;;5.90;81.30;;;;;;4966709;28;20465;-42
2022/04/09 04:01:47;;;;;;;10.13;3.83;;;5.90;80.90;;;;;;4984430;28;20472;-42
2022/04/09 04:04:14;;;;;;;6.20;2.73;;;5.90;81.30;;;;;;4981900;28;20493;-42
2022/04/09 04:06:41;;;;;;;9.23;3.50;;;5.90;81.40;;;;;;4982944;28;20512;-42
2022/04/09 04:09:09;;;;;;;5.27;2.50;;;5.90;81.60;;;;;;4980995;28;20825;-42
2022/04/09 04:11:35;;;;;;;7.50;2.00;;;5.90;81.70;;;;;;4982267;28;20465;-41
2022/04/09 04:14:04;;;;;;;6.10;2.87;;;5.90;81.10;;;;;;4982068;28;20466;-42
2022/04/09 04:16:31;;;;;;;3.90;2.53;;;5.80;81.50;;;;;;4983329;28;20470;-42
2022/04/09 04:18:58;;;;;;;4.30;2.80;;;5.80;81.10;;;;;;4980895;28;20469;-42
2022/04/09 04:21:24;;;;;;;10.43;2.87;;;5.80;80.60;;;;;;4980576;28;20456;-42
2022/04/09 04:23:51;;;;;;;8.90;3.20;;;5.80;81.00;;;;;;4979803;28;20557;-42
2022/04/09 04:26:18;;;;;;;9.23;3.20;;;5.80;81.60;;;;;;4983492;28;20467;-42
2022/04/09 04:28:51;;;;;;;6.90;3.23;;;5.80;81.40;;;;;;4982985;28;20525;-42
2022/04/09 04:31:18;;;;;;;10.47;2.80;;;5.70;81.10;;;;;;4984945;28;20580;-42
2022/04/09 04:33:45;;;;;;;4.07;2.10;;;5.70;80.80;;;;;;4982561;28;20520;-42
2022/04/09 04:36:12;;;;;;;5.97;2.10;;;5.70;81.00;;;;;;4980917;28;20447;-42
2022/04/09 04:38:39;;;;;;;9.60;2.50;;;5.70;81.40;;;;;;4983543;28;20950;-42
2022/04/09 04:41:06;;;;;;;6.27;2.40;;;5.70;81.40;;;;;;4979942;28;20839;-42
2022/04/09 04:43:33;;;;;;;5.80;2.43;;;5.70;81.40;;;;;;4955952;28;20543;-42
2022/04/09 04:46:00;;;;;;;3.60;2.60;;;5.70;80.70;;;;;;4982800;28;20466;-42
2022/04/09 04:48:27;;;;;;;4.13;2.00;;;5.70;80.90;;;;;;4980830;28;20516;-41
2022/04/09 04:50:54;;;;;;;5.63;2.27;;;5.70;81.70;;;;;;4981687;28;20484;-42
2022/04/09 04:53:21;;;;;;;8.37;2.40;;;5.70;81.20;;;;;;4982678;28;20461;-42
2022/04/09 04:55:47;;;;;;;7.70;2.63;;;5.70;80.50;;;;;;4980769;28;20527;-42
2022/04/09 04:58:18;;;;;;;5.03;2.30;;;5.70;80.50;;;;;;4980325;28;21005;-42
2022/04/09 05:00:45;;;;;;;7.57;2.47;;;5.70;80.40;;;;;;4982230;28;20471;-42
2022/04/09 05:03:13;;;;;;;7.13;2.80;;;5.70;80.60;;;;;;4983100;28;20987;-42
2022/04/09 05:05:39;;;;;;;13.10;3.13;;;5.70;81.00;;;;;;4975697;28;20474;-42
2022/04/09 05:08:07;;;;;;;2.60;2.03;;;5.60;80.50;;;;;;4981147;28;20860;-42
2022/04/09 05:10:33;;;;;;;11.60;3.00;;;5.60;80.80;;;;;;4980310;28;20457;-42
2022/04/09 05:13:00;;;;;;;2.67;1.87;;;5.60;81.00;;;;;;4980731;28;20476;-41
2022/04/09 05:15:27;;;;;;;5.30;2.30;;;5.60;81.30;;;;;;4980065;28;20525;-41
2022/04/09 05:17:54;;;;;;;1.90;1.70;;;5.60;81.00;;;;;;4979085;28;20473;-42
2022/04/09 05:20:21;;;;;;;4.53;2.50;;;5.60;80.00;;;;;;4982771;28;20955;-42
2022/04/09 05:22:47;;;;;;;4.93;2.50;;;5.60;80.20;;;;;;4965448;28;20980;-42
2022/04/09 05:25:21;;;;;;;7.10;2.60;;;5.60;80.10;;;;;;4977019;28;20465;-43
2022/04/09 05:27:51;;;;;;;8.17;2.27;;;5.60;80.90;;;;;;4982585;28;20496;-42
2022/04/09 05:30:19;;;;;;;5.57;2.40;;;5.60;81.10;;;;;;4978265;28;20454;-42
2022/04/09 05:32:47;;;;;;;6.80;2.87;;;5.60;80.90;;;;;;4981280;28;20489;-42
2022/04/09 05:35:16;;;;;;;16.90;3.30;;;5.60;81.20;;;;;;4983369;28;20494;-42
2022/04/09 05:37:48;;;;;;;11.50;4.93;;;5.60;81.60;;;;;;4972672;28;20465;-42
2022/04/09 05:40:15;;;;;;;6.03;2.80;;;5.70;81.40;;;;;;4962909;28;20468;-42
2022/04/09 05:42:42;;;;;;;7.03;3.00;;;5.70;81.30;;;;;;4979420;28;20475;-42
2022/04/09 05:45:10;;;;;;;5.90;3.37;;;5.70;81.30;;;;;;4980714;28;20480;-42
2022/04/09 05:47:45;;;;;;;8.67;2.90;;;5.80;81.10;;;;;;4980126;28;20503;-42
2022/04/09 05:50:13;;;;;;;11.33;3.30;;;5.80;81.10;;;;;;4964637;28;20465;-42
2022/04/09 05:52:40;;;;;;;5.03;2.40;;;5.80;80.60;;;;;;4964447;28;20467;-42
2022/04/09 05:55:08;;;;;;;3.90;2.20;;;5.80;79.70;;;;;;4964098;28;20459;-41
2022/04/09 05:57:34;;;;;;;4.53;2.43;;;5.80;79.20;;;;;;4978467;28;20585;-42
2022/04/09 06:00:04;;;;;;;6.90;3.50;;;5.80;79.50;;;;;;4979128;28;20496;-42
2022/04/09 06:02:31;;;;;;;5.57;3.17;;;5.80;79.10;;;;;;4976562;28;20561;-42
2022/04/09 06:04:58;;;;;;;10.90;3.03;;;5.80;79.50;;;;;;4980885;28;21026;-42
2022/04/09 06:07:26;;;;;;;7.80;2.93;;;5.80;79.60;;;;;;4979645;28;20501;-42
2022/04/09 06:09:53;;;;;;;8.27;3.50;;;5.80;80.00;;;;;;4980345;28;20459;-42
2022/04/09 06:12:20;;;;;;;7.57;2.77;;;5.90;79.80;;;;;;4962899;28;20457;-41
2022/04/09 06:14:47;;;;;;;9.27;2.90;;;5.90;80.10;;;;;;4966453;28;20458;-42
2022/04/09 06:17:14;;;;;;;8.17;2.73;;;5.90;79.50;;;;;;4965258;28;20461;-42
2022/04/09 06:19:40;;;;;;;6.37;3.90;;;6.00;79.50;;;;;;4966878;28;20465;-42
2022/04/09 06:22:07;;;;;;;6.17;2.47;;;6.00;78.60;;;;;;4969638;28;21140;-41
2022/04/09 06:24:34;;;;;;;5.43;2.60;;;6.00;78.60;;;;;;4976720;28;20473;-41
2022/04/09 06:27:01;;;;;;;9.63;2.67;;;6.00;78.70;;;;;;4975155;28;21104;-41
2022/04/09 06:29:27;;;;;;;3.63;2.20;;;6.10;78.80;;;;;;4985306;28;20466;-42
2022/04/09 06:31:54;;;;;;;7.00;2.90;;;6.10;79.00;;;;;;4983419;28;20483;-42
2022/04/09 06:34:22;;;;;;;6.30;3.37;;;6.10;78.70;;;;;;4983344;28;20561;-42
2022/04/09 06:36:49;;;;;;;6.27;2.20;;;6.10;78.40;;;;;;4981102;28;20457;-42
2022/04/09 06:39:18;;;;;;;8.70;3.70;;;6.10;78.30;;;;;;4982281;28;20454;-42
2022/04/09 06:41:48;;;;;;;3.87;2.63;;;6.20;77.30;;;;;;4986016;28;20497;-42
2022/04/09 06:44:16;;;;;;;5.10;3.40;;;6.20;77.20;;;;;;4981801;28;20460;-42
2022/04/09 06:46:43;;;;;;;9.13;3.67;;;6.20;76.80;;;;;;4986659;28;20449;-42
2022/04/09 06:49:13;;;;;;;9.40;2.97;;;6.20;78.10;;;;;;4986249;28;20462;-42
2022/04/09 06:51:40;;;;;;;9.10;3.90;;;6.20;78.40;;;;;;4982701;28;20463;-42
2022/04/09 06:54:07;;;;;;;7.40;2.67;;;6.20;78.50;;;;;;4966716;28;20453;-42
2022/04/09 06:56:36;;;;;;;5.90;2.70;;;6.30;78.60;;;;;;4985170;28;20461;-43
2022/04/09 06:59:04;;;;;;;6.90;2.30;;;6.30;77.60;;;;;;4982810;28;20466;-42
2022/04/09 07:01:31;;;;;;;6.60;2.90;;;6.30;78.40;;;;;;4965391;28;20457;-42
2022/04/09 07:04:00;;;;;;;6.23;2.40;;;6.30;78.70;;;;;;4982590;28;20470;-43
2022/04/09 07:06:27;;;;;;;7.67;3.27;;;6.40;78.20;;;;;;4981914;28;20469;-43
2022/04/09 07:08:53;;;;;;;3.37;2.50;;;6.40;78.10;;;;;;4980483;28;20486;-42
2022/04/09 07:11:20;;;;;;;8.03;4.07;;;6.50;78.20;;;;;;4982910;28;20812;-42
2022/04/09 07:13:47;;;;;;;5.20;3.20;;;6.50;78.20;;;;;;4986139;28;20450;-42
2022/04/09 07:16:14;;;;;;;4.83;2.60;;;6.60;78.30;;;;;;4980769;28;20537;-42
2022/04/09 07:18:40;;;;;;;4.67;2.70;;;6.70;77.20;;;;;;4979897;28;20841;-42
2022/04/09 07:21:07;;;;;;;5.90;2.93;;;6.80;77.20;;;;;;4978886;28;20508;-42
2022/04/09 07:23:34;;;;;;;14.20;3.27;;;6.90;77.10;;;;;;4982356;28;20530;-42
2022/04/09 07:26:01;;;;;;;3.80;2.47;;;7.00;76.20;;;;;;4983165;28;20465;-42
2022/04/09 07:28:27;;;;;;;6.30;2.83;;;7.10;75.60;;;;;;4981523;28;20497;-42
2022/04/09 07:30:54;;;;;;;7.73;2.70;;;7.10;75.00;;;;;;4984425;28;20473;-43
2022/04/09 07:33:21;;;;;;;4.77;2.20;;;7.10;74.60;;;;;;4979806;28;20502;-43
2022/04/09 07:35:54;;;;;;;7.53;3.17;;;7.20;75.00;;;;;;4983412;28;20466;-43
2022/04/09 07:38:21;;;;;;;8.00;3.00;;;7.20;74.80;;;;;;4981233;28;20450;-43
2022/04/09 07:40:49;;;;;;;6.03;2.80;;;7.30;74.90;;;;;;4980635;28;20553;-43
2022/04/09 07:43:15;;;;;;;9.90;4.47;;;7.30;75.40;;;;;;4985068;28;20458;-43
2022/04/09 07:45:42;;;;;;;7.47;2.40;;;7.40;75.30;;;;;;4967234;28;20458;-43
2022/04/09 07:48:11;;;;;;;8.50;3.83;;;7.60;74.20;;;;;;4980656;28;20479;-43
2022/04/09 07:50:38;;;;;;;3.90;2.80;;;7.80;73.30;;;;;;4984705;28;20460;-43
2022/04/09 07:53:08;;;;;;;8.30;2.30;;;7.90;73.50;;;;;;4980719;28;20470;-43
2022/04/09 07:55:35;;;;;;;6.77;2.90;;;8.10;72.10;;;;;;4984291;28;20505;-42
2022/04/09 07:58:02;;;;;;;6.17;2.90;;;8.30;71.90;;;;;;4982877;28;20473;-42
2022/04/09 08:00:32;;;;;;;6.30;2.90;;;8.40;70.50;;;;;;4965099;28;20469;-42
2022/04/09 08:02:59;;;;;;;4.77;3.70;;;8.50;70.70;;;;;;4979834;28;20967;-42
2022/04/09 08:05:26;;;;;;;18.97;3.57;;;8.60;71.30;;;;;;4968308;28;20466;-42
2022/04/09 08:07:53;;;;;;;5.20;2.57;;;8.70;70.40;;;;;;4967569;28;20502;-42
2022/04/09 08:10:20;;;;;;;8.20;3.37;;;8.70;69.10;;;;;;4983916;28;20446;-42
2022/04/09 08:12:49;;;;;;;7.93;2.67;;;8.60;69.30;;;;;;4982103;28;20458;-42
2022/04/09 08:15:18;;;;;;;12.03;3.13;;;8.60;70.10;;;;;;4982958;28;20514;-42
2022/04/09 08:17:47;;;;;;;4.60;2.23;;;8.70;69.70;;;;;;4984917;28;20838;-42
2022/04/09 08:20:14;;;;;;;4.13;3.73;;;8.80;68.70;;;;;;4981420;28;20493;-42
2022/04/09 08:22:41;;;;;;;7.33;2.20;;;8.90;68.10;;;;;;4981752;28;20512;-42
2022/04/09 08:25:10;;;;;;;6.77;2.07;;;9.10;68.50;;;;;;4982777;28;20568;-42
2022/04/09 08:27:38;;;;;;;4.90;2.60;;;9.30;69.00;;;;;;4978898;28;20534;-42
2022/04/09 08:30:07;;;;;;;4.83;2.40;;;9.50;68.70;;;;;;4978111;28;20949;-42
2022/04/09 08:32:34;;;;;;;8.47;3.60;;;9.80;67.30;;;;;;4986602;28;20472;-42
2022/04/09 08:35:01;;;;;;;4.60;3.40;;;10.10;64.50;;;;;;4963099;28;20963;-42
2022/04/09 08:37:28;;;;;;;6.73;2.30;;;10.20;64.00;;;;;;4985095;28;20469;-42
2022/04/09 08:39:55;;;;;;;5.70;2.00;;;10.40;63.60;;;;;;4981162;28;20450;-42
2022/04/09 08:42:22;;;;;;;5.30;2.30;;;10.50;62.50;;;;;;4967524;28;20562;-42
2022/04/09 08:44:49;;;;;;;4.30;2.00;;;10.70;61.20;;;;;;4982244;28;20498;-42
2022/04/09 08:47:16;;;;;;;4.37;1.70;;;10.70;62.00;;;;;;4981802;28;20456;-42
2022/04/09 08:49:47;;;;;;;8.10;2.43;;;10.60;62.10;;;;;;4973115;28;20529;-42
2022/04/09 08:52:15;;;;;;;4.83;2.27;;;10.70;62.70;;;;;;4966362;28;20491;-42
2022/04/09 08:54:42;;;;;;;8.63;2.10;;;10.70;62.20;;;;;;4983898;28;20531;-42
2022/04/09 08:57:09;;;;;;;5.70;2.03;;;10.60;62.20;;;;;;4983098;28;20493;-42
2022/04/09 08:59:36;;;;;;;4.83;2.70;;;10.80;61.10;;;;;;4979201;28;20457;-42
2022/04/09 09:02:04;;;;;;;8.17;2.77;;;10.80;61.20;;;;;;4982303;28;20463;-42
2022/04/09 09:04:32;;;;;;;5.43;2.40;;;10.70;62.20;;;;;;4982133;28;20453;-42
2022/04/09 09:07:22;;;;;;;5.30;2.43;;;10.70;61.90;;;;;;4961783;28;21032;-42
2022/04/09 09:09:53;;;;;;;6.20;2.20;;;10.80;61.30;;;;;;4979241;28;20490;-42
2022/04/09 09:12:28;;;;;;;6.50;2.20;;;11.00;61.30;;;;;;4983455;28;20472;-43
2022/04/09 09:14:55;;;;;;;7.23;2.37;;;11.20;59.40;;;;;;4980269;28;20450;-42
2022/04/09 09:17:29;;;;;;;4.43;2.07;;;11.50;58.80;;;;;;4979597;28;20495;-42
2022/04/09 09:19:56;;;;;;;6.00;2.70;;;12.00;59.40;;;;;;4978419;28;20466;-43
2022/04/09 09:22:40;;;;;;;3.67;2.30;;;12.30;57.20;;;;;;4982445;28;20930;-43
2022/04/09 09:25:11;;;;;;;3.53;1.60;;;12.50;56.40;;;;;;4980616;28;20459;-43
2022/04/09 09:27:40;;;;;;;2.00;1.33;;;12.70;55.00;;;;;;4982761;28;20475;-43
2022/04/09 09:30:12;;;;;;;3.33;1.40;;;12.90;53.00;;;;;;4982955;28;20451;-42
2022/04/09 09:32:41;;;;;;;3.40;1.50;;;13.00;51.50;;;;;;4962958;28;20948;-43
2022/04/09 09:35:10;;;;;;;8.53;1.93;;;13.10;52.00;;;;;;4980254;28;20833;-42
2022/04/09 09:37:38;;;;;;;4.80;1.60;;;13.20;52.60;;;;;;4982796;28;20669;-42
2022/04/09 09:40:05;;;;;;;3.87;1.63;;;13.40;52.90;;;;;;4981729;28;20536;-42
2022/04/09 09:42:35;;;;;;;3.50;1.23;;;13.70;52.40;;;;;;4977562;28;20487;-42
2022/04/09 09:45:01;;;;;;;3.27;1.50;;;13.90;51.80;;;;;;4980340;28;20439;-43
2022/04/09 09:47:28;;;;;;;7.00;1.60;;;14.00;51.10;;;;;;4977718;28;20483;-43
2022/04/09 09:49:56;;;;;;;;;;;;;;;;;;;;;
2022/04/09 09:52:30;;;;;;;7.13;1.87;;;13.50;50.80;;;;;;4983199;28;20462;-43
2022/04/09 09:55:14;;;;;;;3.00;1.33;;;13.20;50.90;;;;;;4983057;28;20561;-43
2022/04/09 09:57:42;;;;;;;4.63;1.90;;;13.20;51.30;;;;;;4977841;28;20538;-43
2022/04/09 10:00:11;;;;;;;2.43;1.40;;;13.20;51.90;;;;;;4978481;28;21047;-43
2022/04/09 10:02:44;;;;;;;3.00;1.50;;;13.20;50.90;;;;;;4978833;28;20624;-43
2022/04/09 10:05:11;;;;;;;1.53;1.10;;;12.90;51.90;;;;;;4975715;28;20467;-43
2022/04/09 10:07:39;;;;;;;2.93;2.07;;;12.70;52.30;;;;;;4978875;28;20578;-44
2022/04/09 10:10:06;;;;;;;2.97;1.60;;;12.50;51.80;;;;;;4982113;28;20471;-43
2022/04/09 10:12:38;;;;;;;1.50;1.27;;;12.50;51.60;;;;;;4980304;28;20490;-43
2022/04/09 10:15:06;;;;;;;4.03;1.77;;;12.50;51.90;;;;;;4980724;28;20517;-43
2022/04/09 10:17:34;;;;;;;6.23;1.77;;;12.70;54.40;;;;;;4965856;28;20538;-43
2022/04/09 10:20:03;;;;;;;8.33;1.67;;;13.20;53.00;;;;;;4979253;28;21068;-43
2022/04/09 10:22:35;;;;;;;3.17;2.03;;;13.70;52.90;;;;;;4971195;28;20478;-41
2022/04/09 10:25:05;;;;;;;7.93;1.77;;;14.30;51.20;;;;;;4965232;28;20473;-43
2022/04/09 10:27:39;;;;;;;3.83;1.57;;;14.50;48.70;;;;;;4980188;28;20587;-43
2022/04/09 10:30:14;;;;;;;7.80;1.63;;;14.40;48.00;;;;;;4962495;28;20462;-42
2022/04/09 10:32:46;;;;;;;9.23;1.90;;;14.40;48.90;;;;;;4980534;28;20577;-42
2022/04/09 10:35:38;;;;;;;2.03;1.53;;;14.20;48.70;;;;;;4980002;28;20470;-42
2022/04/09 10:38:14;;;;;;;4.53;1.80;;;13.80;49.70;;;;;;4984411;28;20513;-42
2022/04/09 10:40:50;;;;;;;6.07;1.93;;;13.50;49.60;;;;;;4976220;28;20816;-42
2022/04/09 10:43:25;;;;;;;4.37;2.10;;;13.30;51.00;;;;;;4980822;28;20455;-42
2022/04/09 10:46:08;;;;;;;2.47;2.23;;;13.00;50.70;;;;;;4977848;28;20459;-42
2022/04/09 10:48:37;;;;;;;3.37;2.00;;;12.80;52.10;;;;;;4981255;28;20519;-43
2022/04/09 10:51:04;;;;;;;4.67;1.87;;;12.60;52.70;;;;;;4978961;28;20485;-43
2022/04/09 10:53:33;;;;;;;3.77;1.70;;;12.40;52.20;;;;;;4981154;28;20709;-43
2022/04/09 10:56:20;;;;;;;4.67;2.23;;;12.20;52.00;;;;;;4980438;28;20455;-43
2022/04/09 10:59:08;;;;;;;3.03;1.20;;;12.00;53.00;;;;;;4958808;28;20458;-43
2022/04/09 11:01:51;;;;;;;1.30;0.67;;;11.90;54.30;;;;;;4977410;28;20510;-43
2022/04/09 11:04:36;;;;;;;4.90;0.83;;;11.80;55.60;;;;;;4981818;28;20459;-43
2022/04/09 11:07:23;;;;;;;1.50;0.80;;;11.60;57.30;;;;;;4978552;28;20470;-43
2022/04/09 11:09:56;;;;;;;1.20;0.73;;;11.50;58.20;;;;;;4978117;28;20959;-43
2022/04/09 11:12:38;;;;;;;2.97;1.63;;;11.40;57.90;;;;;;4977047;28;20954;-43
2022/04/09 11:15:11;;;;;;;7.60;2.33;;;11.20;58.50;;;;;;4980826;28;20466;-43
2022/04/09 11:17:45;;;;;;;2.23;1.30;;;11.10;60.40;;;;;;4984600;28;20537;-43
2022/04/09 11:20:23;;;;;;;1.13;1.13;;;10.90;60.40;;;;;;4984305;28;20489;-43
2022/04/09 11:22:52;;;;;;;0.87;0.70;;;10.80;60.80;;;;;;4982758;28;20469;-43
2022/04/09 11:25:26;;;;;;;1.67;0.60;;;10.60;60.40;;;;;;4981314;28;20889;-43
2022/04/09 11:28:14;;;;;;;0.97;0.80;;;10.30;60.80;;;;;;4981814;28;20843;-43
2022/04/09 11:31:04;;;;;;;1.40;0.63;;;10.00;62.60;;;;;;4985578;28;20461;-43
2022/04/09 11:33:31;;;;;;;0.80;0.80;;;9.60;65.50;;;;;;4981397;28;20447;-43
2022/04/09 11:36:02;;;;;;;1.60;0.70;;;9.40;66.40;;;;;;4983638;28;20446;-43
2022/04/09 11:38:29;;;;;;;1.10;0.60;;;9.40;67.70;;;;;;4971644;28;20467;-43
2022/04/09 11:40:56;;;;;;;1.10;1.00;;;9.40;67.70;;;;;;4980391;28;20461;-43
2022/04/09 11:43:23;;;;;;;2.20;1.07;;;9.40;69.20;;;;;;4982337;28;20470;-43
2022/04/09 11:45:50;;;;;;;2.20;0.97;;;9.40;69.40;;;;;;4983444;28;20538;-42
2022/04/09 11:48:20;;;;;;;2.23;1.20;;;9.40;69.10;;;;;;4968012;28;20449;-42
2022/04/09 11:50:48;;;;;;;2.77;1.03;;;9.40;68.40;;;;;;4982783;28;20454;-42
2022/04/09 11:53:24;;;;;;;1.23;1.10;;;9.40;68.80;;;;;;4982634;28;20871;-42
2022/04/09 11:56:01;;;;;;;1.70;1.10;;;9.40;67.10;;;;;;4980409;28;20454;-42
2022/04/09 11:58:33;;;;;;;1.37;1.10;;;9.30;67.10;;;;;;4982080;28;20478;-42
2022/04/09 12:01:00;;;;;;;2.10;1.00;;;9.20;68.70;;;;;;4980037;28;20824;-43
2022/04/09 12:03:27;;;;;;;7.40;1.27;;;9.30;67.60;;;;;;4981205;28;20957;-43
2022/04/09 12:05:54;;;;;;;2.60;1.50;;;9.40;70.00;;;;;;4979193;28;20462;-43
2022/04/09 12:08:25;;;;;;;2.10;1.30;;;9.70;68.90;;;;;;4983134;28;20836;-43
2022/04/09 12:10:55;;;;;;;1.80;1.30;;;9.90;68.20;;;;;;4982089;28;20477;-43
2022/04/09 12:13:34;;;;;;;2.73;1.40;;;10.20;65.70;;;;;;4976141;28;20542;-43
2022/04/09 12:16:09;;;;;;;4.30;1.40;;;10.40;64.00;;;;;;4981949;28;20469;-43
2022/04/09 12:18:37;;;;;;;2.67;1.20;;;10.60;66.00;;;;;;4981368;28;20454;-43
2022/04/09 12:21:20;;;;;;;1.40;1.23;;;10.80;63.30;;;;;;4977972;28;20464;-43
2022/04/09 12:24:00;;;;;;;4.47;2.40;;;11.00;62.80;;;;;;4983337;28;20876;-43
2022/04/09 12:26:28;;;;;;;4.80;1.43;;;11.20;59.60;;;;;;4984117;28;20453;-43
2022/04/09 12:29:11;;;;;;;1.23;0.90;;;11.30;59.80;;;;;;4962689;28;20491;-43
2022/04/09 12:31:39;;;;;;;2.60;1.30;;;11.50;56.90;;;;;;4981369;28;20469;-43
2022/04/09 12:34:06;;;;;;;3.53;2.23;;;11.70;57.70;;;;;;4982095;28;20492;-43
2022/04/09 12:36:33;;;;;;;2.73;1.43;;;11.90;57.80;;;;;;4981802;28;20505;-45
2022/04/09 12:39:00;;;;;;;3.00;1.63;;;12.00;58.00;;;;;;4980480;28;20513;-42
2022/04/09 12:41:45;;;;;;;3.03;1.53;;;12.20;57.80;;;;;;4981672;28;20456;-42
2022/04/09 12:44:28;;;;;;;3.77;1.47;;;12.40;56.90;;;;;;4987197;28;20474;-42
2022/04/09 12:46:56;;;;;;;4.37;2.03;;;12.60;54.80;;;;;;4982471;28;20945;-42
2022/04/09 12:49:33;;;;;;;2.60;1.40;;;12.70;53.50;;;;;;4979874;28;20491;-42
2022/04/09 12:52:02;;;;;;;2.37;1.50;;;12.90;54.80;;;;;;4983129;28;20454;-42
2022/04/09 12:54:30;;;;;;;3.57;1.70;;;13.00;52.60;;;;;;4980221;28;20495;-42
2022/04/09 12:57:04;;;;;;;2.37;1.40;;;13.20;53.60;;;;;;4980809;28;20586;-42
2022/04/09 12:59:31;;;;;;;5.73;1.33;;;13.40;51.40;;;;;;4979147;28;20459;-42
2022/04/09 13:01:58;;;;;;;5.10;1.43;;;13.50;52.50;;;;;;4961727;28;20953;-42